sensor_id;sensor_type;location;lat;lon;timestamp;pressure;altitude;pressure_sealevel;temperature;humidity
58919;BME280;44704;50.122;19.932;2023-02-11T00:00:57;100056.34;;;-2.09;75.99
58919;BME280;44704;50.122;19.932;2023-02-11T00:03:24;100052.77;;;-2.12;76.10
58919;BME280;44704;50.122;19.932;2023-02-11T00:06:04;100044.58;;;-2.14;76.23
58919;BME280;44704;50.122;19.932;2023-02-11T00:08:31;100035.60;;;-2.17;76.14
58919;BME280;44704;50.122;19.932;2023-02-11T00:10:58;100037.77;;;-2.20;76.24
58919;BME280;44704;50.122;19.932;2023-02-11T00:13:26;100033.52;;;-2.22;76.15
58919;BME280;44704;50.122;19.932;2023-02-11T00:15:53;100030.30;;;-2.24;76.42
58919;BME280;44704;50.122;19.932;2023-02-11T00:18:21;100024.63;;;-2.26;76.34
58919;BME280;44704;50.122;19.932;2023-02-11T00:20:48;100016.65;;;-2.29;76.49
58919;BME280;44704;50.122;19.932;2023-02-11T00:23:16;100011.76;;;-2.30;76.52
58919;BME280;44704;50.122;19.932;2023-02-11T00:25:44;100014.64;;;-2.31;76.85
58919;BME280;44704;50.122;19.932;2023-02-11T00:28:11;100008.59;;;-2.33;76.69
58919;BME280;44704;50.122;19.932;2023-02-11T00:30:40;100003.05;;;-2.35;76.80
58919;BME280;44704;50.122;19.932;2023-02-11T00:33:08;100002.14;;;-2.37;76.86
58919;BME280;44704;50.122;19.932;2023-02-11T00:35:36;100004.66;;;-2.39;76.69
58919;BME280;44704;50.122;19.932;2023-02-11T00:38:04;100010.35;;;-2.41;76.96
58919;BME280;44704;50.122;19.932;2023-02-11T00:40:31;100011.36;;;-2.45;77.11
58919;BME280;44704;50.122;19.932;2023-02-11T00:42:58;100017.02;;;-2.47;77.14
58919;BME280;44704;50.122;19.932;2023-02-11T00:45:25;100010.06;;;-2.49;77.11
58919;BME280;44704;50.122;19.932;2023-02-11T00:47:52;100003.46;;;-2.51;77.13
58919;BME280;44704;50.122;19.932;2023-02-11T00:50:20;99992.30;;;-2.56;77.26
58919;BME280;44704;50.122;19.932;2023-02-11T00:52:48;99988.00;;;-2.58;77.41
58919;BME280;44704;50.122;19.932;2023-02-11T00:55:16;99981.07;;;-2.60;77.42
58919;BME280;44704;50.122;19.932;2023-02-11T00:57:43;99976.30;;;-2.63;77.40
58919;BME280;44704;50.122;19.932;2023-02-11T01:00:11;99972.70;;;-2.64;77.57
58919;BME280;44704;50.122;19.932;2023-02-11T01:02:39;99968.09;;;-2.67;77.42
58919;BME280;44704;50.122;19.932;2023-02-11T01:05:06;99962.98;;;-2.69;77.59
58919;BME280;44704;50.122;19.932;2023-02-11T01:07:33;99952.69;;;-2.72;77.47
58919;BME280;44704;50.122;19.932;2023-02-11T01:10:00;99945.96;;;-2.74;77.51
58919;BME280;44704;50.122;19.932;2023-02-11T01:12:29;99942.79;;;-2.77;77.77
58919;BME280;44704;50.122;19.932;2023-02-11T01:14:58;99936.43;;;-2.80;77.74
58919;BME280;44704;50.122;19.932;2023-02-11T01:17:25;99929.39;;;-2.83;77.83
58919;BME280;44704;50.122;19.932;2023-02-11T01:19:51;99930.61;;;-2.85;77.83
58919;BME280;44704;50.122;19.932;2023-02-11T01:22:18;99931.54;;;-2.88;77.78
58919;BME280;44704;50.122;19.932;2023-02-11T01:24:47;99930.25;;;-2.89;77.85
58919;BME280;44704;50.122;19.932;2023-02-11T01:27:14;99931.70;;;-2.92;77.87
58919;BME280;44704;50.122;19.932;2023-02-11T01:29:41;99927.09;;;-2.94;78.02
58919;BME280;44704;50.122;19.932;2023-02-11T01:32:07;99924.00;;;-2.96;78.09
58919;BME280;44704;50.122;19.932;2023-02-11T01:34:34;99921.07;;;-2.97;78.36
58919;BME280;44704;50.122;19.932;2023-02-11T01:37:01;99911.83;;;-2.97;78.47
58919;BME280;44704;50.122;19.932;2023-02-11T01:39:32;99902.86;;;-2.96;78.70
58919;BME280;44704;50.122;19.932;2023-02-11T01:41:59;99900.16;;;-2.95;78.56
58919;BME280;44704;50.122;19.932;2023-02-11T01:44:30;99898.55;;;-2.95;78.51
58919;BME280;44704;50.122;19.932;2023-02-11T01:46:58;99891.46;;;-2.95;78.48
58919;BME280;44704;50.122;19.932;2023-02-11T01:49:28;99879.92;;;-2.96;78.60
58919;BME280;44704;50.122;19.932;2023-02-11T01:54:53;99862.23;;;-2.97;78.68
58919;BME280;44704;50.122;19.932;2023-02-11T01:57:41;99874.28;;;-2.98;78.58
58919;BME280;44704;50.122;19.932;2023-02-11T02:00:31;99873.30;;;-2.99;78.65
58919;BME280;44704;50.122;19.932;2023-02-11T02:03:16;99873.69;;;-3.00;78.52
58919;BME280;44704;50.122;19.932;2023-02-11T02:06:09;99868.48;;;-3.01;78.56
58919;BME280;44704;50.122;19.932;2023-02-11T02:08:44;99871.00;;;-3.01;78.63
58919;BME280;44704;50.122;19.932;2023-02-11T02:11:12;99877.40;;;-3.04;78.69
58919;BME280;44704;50.122;19.932;2023-02-11T02:13:39;99871.11;;;-3.05;78.84
58919;BME280;44704;50.122;19.932;2023-02-11T02:16:11;99864.80;;;-3.06;78.73
58919;BME280;44704;50.122;19.932;2023-02-11T02:35:51;99878.88;;;-3.11;79.18
58919;BME280;44704;50.122;19.932;2023-02-11T02:38:24;99865.84;;;-3.11;79.32
58919;BME280;44704;50.122;19.932;2023-02-11T02:41:14;99859.49;;;-3.09;79.39
58919;BME280;44704;50.122;19.932;2023-02-11T02:43:44;99851.08;;;-3.06;79.29
58919;BME280;44704;50.122;19.932;2023-02-11T02:46:16;99848.47;;;-3.04;79.21
58919;BME280;44704;50.122;19.932;2023-02-11T02:48:43;99840.11;;;-3.02;79.25
58919;BME280;44704;50.122;19.932;2023-02-11T02:54:35;99825.57;;;-2.98;79.39
58919;BME280;44704;50.122;19.932;2023-02-11T02:57:28;99819.86;;;-2.95;79.32
58919;BME280;44704;50.122;19.932;2023-02-11T03:08:33;99791.91;;;-2.86;79.59
58919;BME280;44704;50.122;19.932;2023-02-11T03:11:04;99789.00;;;-2.83;79.56
58919;BME280;44704;50.122;19.932;2023-02-11T03:13:35;99778.56;;;-2.81;79.36
58919;BME280;44704;50.122;19.932;2023-02-11T03:16:14;99767.06;;;-2.80;79.55
58919;BME280;44704;50.122;19.932;2023-02-11T03:18:47;99744.61;;;-2.79;79.50
58919;BME280;44704;50.122;19.932;2023-02-11T03:21:15;99737.76;;;-2.80;79.44
58919;BME280;44704;50.122;19.932;2023-02-11T03:23:55;99736.40;;;-2.79;79.58
58919;BME280;44704;50.122;19.932;2023-02-11T03:26:37;99731.48;;;-2.77;79.47
58919;BME280;44704;50.122;19.932;2023-02-11T03:29:34;99730.05;;;-2.75;79.71
58919;BME280;44704;50.122;19.932;2023-02-11T03:32:08;99721.10;;;-2.74;79.61
58919;BME280;44704;50.122;19.932;2023-02-11T03:34:57;99705.55;;;-2.73;79.57
58919;BME280;44704;50.122;19.932;2023-02-11T03:39:57;99703.98;;;-2.72;79.51
58919;BME280;44704;50.122;19.932;2023-02-11T03:42:29;99697.58;;;-2.71;79.65
58919;BME280;44704;50.122;19.932;2023-02-11T03:45:04;99700.19;;;-2.71;79.52
58919;BME280;44704;50.122;19.932;2023-02-11T03:47:35;99708.69;;;-2.70;79.66
58919;BME280;44704;50.122;19.932;2023-02-11T03:50:05;99716.71;;;-2.71;79.62
58919;BME280;44704;50.122;19.932;2023-02-11T03:52:35;99716.52;;;-2.70;79.51
58919;BME280;44704;50.122;19.932;2023-02-11T03:55:11;99717.14;;;-2.70;79.52
58919;BME280;44704;50.122;19.932;2023-02-11T03:57:38;99721.84;;;-2.68;79.68
58919;BME280;44704;50.122;19.932;2023-02-11T04:00:06;99717.41;;;-2.66;79.70
58919;BME280;44704;50.122;19.932;2023-02-11T04:02:40;99706.29;;;-2.65;79.75
58919;BME280;44704;50.122;19.932;2023-02-11T04:05:09;99704.39;;;-2.63;79.64
58919;BME280;44704;50.122;19.932;2023-02-11T04:07:36;99693.58;;;-2.64;79.70
58919;BME280;44704;50.122;19.932;2023-02-11T04:10:04;99688.27;;;-2.62;79.68
58919;BME280;44704;50.122;19.932;2023-02-11T04:12:31;99677.01;;;-2.61;79.64
58919;BME280;44704;50.122;19.932;2023-02-11T04:14:58;99669.15;;;-2.61;79.62
58919;BME280;44704;50.122;19.932;2023-02-11T04:17:25;99667.02;;;-2.61;79.67
58919;BME280;44704;50.122;19.932;2023-02-11T04:19:51;99662.02;;;-2.60;79.60
58919;BME280;44704;50.122;19.932;2023-02-11T04:22:18;99657.83;;;-2.61;79.44
58919;BME280;44704;50.122;19.932;2023-02-11T04:24:45;99645.30;;;-2.62;79.57
58919;BME280;44704;50.122;19.932;2023-02-11T04:27:12;99640.91;;;-2.63;79.52
58919;BME280;44704;50.122;19.932;2023-02-11T04:29:39;99635.05;;;-2.63;79.73
58919;BME280;44704;50.122;19.932;2023-02-11T04:32:07;99625.66;;;-2.63;79.58
58919;BME280;44704;50.122;19.932;2023-02-11T04:34:35;99619.73;;;-2.65;79.64
58919;BME280;44704;50.122;19.932;2023-02-11T04:37:02;99620.60;;;-2.64;79.62
58919;BME280;44704;50.122;19.932;2023-02-11T04:39:29;99619.35;;;-2.65;79.66
58919;BME280;44704;50.122;19.932;2023-02-11T04:41:56;99611.89;;;-2.65;79.75
58919;BME280;44704;50.122;19.932;2023-02-11T04:44:23;99612.15;;;-2.64;79.70
58919;BME280;44704;50.122;19.932;2023-02-11T04:46:50;99616.80;;;-2.62;79.79
58919;BME280;44704;50.122;19.932;2023-02-11T04:49:17;99613.77;;;-2.62;79.73
58919;BME280;44704;50.122;19.932;2023-02-11T04:51:44;99616.41;;;-2.62;79.73
58919;BME280;44704;50.122;19.932;2023-02-11T04:54:11;99628.77;;;-2.61;79.83
58919;BME280;44704;50.122;19.932;2023-02-11T04:56:38;99639.92;;;-2.60;79.79
58919;BME280;44704;50.122;19.932;2023-02-11T04:59:06;99645.04;;;-2.60;79.85
58919;BME280;44704;50.122;19.932;2023-02-11T05:01:33;99634.64;;;-2.59;79.80
58919;BME280;44704;50.122;19.932;2023-02-11T05:04:00;99622.97;;;-2.57;79.89
58919;BME280;44704;50.122;19.932;2023-02-11T05:06:27;99622.45;;;-2.55;79.85
58919;BME280;44704;50.122;19.932;2023-02-11T05:08:54;99633.71;;;-2.54;79.91
58919;BME280;44704;50.122;19.932;2023-02-11T05:11:23;99635.80;;;-2.52;80.13
58919;BME280;44704;50.122;19.932;2023-02-11T05:13:50;99630.89;;;-2.50;79.85
58919;BME280;44704;50.122;19.932;2023-02-11T05:16:17;99624.50;;;-2.48;80.07
58919;BME280;44704;50.122;19.932;2023-02-11T05:18:45;99622.91;;;-2.46;80.03
58919;BME280;44704;50.122;19.932;2023-02-11T05:21:15;99617.10;;;-2.42;80.12
58919;BME280;44704;50.122;19.932;2023-02-11T05:23:43;99616.23;;;-2.39;80.18
58919;BME280;44704;50.122;19.932;2023-02-11T05:26:11;99623.70;;;-2.35;80.26
58919;BME280;44704;50.122;19.932;2023-02-11T05:28:39;99625.52;;;-2.31;79.89
58919;BME280;44704;50.122;19.932;2023-02-11T05:31:06;99626.90;;;-2.29;79.88
58919;BME280;44704;50.122;19.932;2023-02-11T05:33:33;99628.80;;;-2.26;79.91
58919;BME280;44704;50.122;19.932;2023-02-11T05:36:02;99634.88;;;-2.22;79.88
58919;BME280;44704;50.122;19.932;2023-02-11T05:38:30;99642.92;;;-2.18;79.85
58919;BME280;44704;50.122;19.932;2023-02-11T05:40:57;99638.21;;;-2.16;79.65
58919;BME280;44704;50.122;19.932;2023-02-11T05:43:24;99635.23;;;-2.14;79.61
58919;BME280;44704;50.122;19.932;2023-02-11T05:45:51;99637.17;;;-2.12;79.44
58919;BME280;44704;50.122;19.932;2023-02-11T05:48:18;99640.65;;;-2.11;79.42
58919;BME280;44704;50.122;19.932;2023-02-11T05:50:45;99638.91;;;-2.11;79.27
58919;BME280;44704;50.122;19.932;2023-02-11T05:53:12;99640.71;;;-2.10;79.48
58919;BME280;44704;50.122;19.932;2023-02-11T05:55:39;99641.39;;;-2.07;79.43
58919;BME280;44704;50.122;19.932;2023-02-11T05:58:06;99645.55;;;-2.06;79.38
58919;BME280;44704;50.122;19.932;2023-02-11T06:00:34;99639.94;;;-2.05;79.37
58919;BME280;44704;50.122;19.932;2023-02-11T06:03:01;99635.15;;;-2.03;79.40
58919;BME280;44704;50.122;19.932;2023-02-11T06:05:30;99629.81;;;-2.01;79.36
58919;BME280;44704;50.122;19.932;2023-02-11T06:07:58;99616.98;;;-1.99;79.34
58919;BME280;44704;50.122;19.932;2023-02-11T06:10:25;99601.26;;;-1.96;79.55
58919;BME280;44704;50.122;19.932;2023-02-11T06:12:52;99574.58;;;-1.94;79.48
58919;BME280;44704;50.122;19.932;2023-02-11T06:15:19;99552.44;;;-1.91;79.53
58919;BME280;44704;50.122;19.932;2023-02-11T06:17:46;99522.23;;;-1.90;79.36
58919;BME280;44704;50.122;19.932;2023-02-11T06:20:13;99500.67;;;-1.87;79.49
58919;BME280;44704;50.122;19.932;2023-02-11T06:22:40;99500.61;;;-1.86;79.36
58919;BME280;44704;50.122;19.932;2023-02-11T06:25:07;99502.21;;;-1.85;79.33
58919;BME280;44704;50.122;19.932;2023-02-11T06:27:34;99509.11;;;-1.84;79.47
58919;BME280;44704;50.122;19.932;2023-02-11T06:30:01;99519.54;;;-1.84;79.21
58919;BME280;44704;50.122;19.932;2023-02-11T06:32:28;99514.11;;;-1.83;79.30
58919;BME280;44704;50.122;19.932;2023-02-11T06:34:54;99514.02;;;-1.82;79.42
58919;BME280;44704;50.122;19.932;2023-02-11T06:37:21;99521.37;;;-1.80;79.40
58919;BME280;44704;50.122;19.932;2023-02-11T06:39:48;99523.95;;;-1.79;79.52
58919;BME280;44704;50.122;19.932;2023-02-11T06:42:15;99515.75;;;-1.79;79.49
58919;BME280;44704;50.122;19.932;2023-02-11T06:44:42;99509.52;;;-1.79;79.34
58919;BME280;44704;50.122;19.932;2023-02-11T06:47:11;99515.33;;;-1.76;79.40
58919;BME280;44704;50.122;19.932;2023-02-11T06:49:38;99518.95;;;-1.74;79.73
58919;BME280;44704;50.122;19.932;2023-02-11T06:52:05;99524.83;;;-1.69;79.67
58919;BME280;44704;50.122;19.932;2023-02-11T06:54:32;99542.04;;;-1.65;79.34
58919;BME280;44704;50.122;19.932;2023-02-11T06:56:59;99551.19;;;-1.60;79.47
58919;BME280;44704;50.122;19.932;2023-02-11T06:59:26;99547.35;;;-1.55;79.17
58919;BME280;44704;50.122;19.932;2023-02-11T07:01:53;99546.29;;;-1.49;79.34
58919;BME280;44704;50.122;19.932;2023-02-11T07:04:20;99550.44;;;-1.40;78.84
58919;BME280;44704;50.122;19.932;2023-02-11T07:06:48;99549.65;;;-1.33;79.08
58919;BME280;44704;50.122;19.932;2023-02-11T07:09:15;99548.97;;;-1.26;78.75
58919;BME280;44704;50.122;19.932;2023-02-11T07:11:42;99545.42;;;-1.18;78.69
58919;BME280;44704;50.122;19.932;2023-02-11T07:14:09;99554.95;;;-1.11;78.59
58919;BME280;44704;50.122;19.932;2023-02-11T07:16:37;99550.82;;;-1.05;78.72
58919;BME280;44704;50.122;19.932;2023-02-11T07:19:04;99552.00;;;-1.01;78.23
58919;BME280;44704;50.122;19.932;2023-02-11T07:21:32;99548.57;;;-0.97;78.34
58919;BME280;44704;50.122;19.932;2023-02-11T07:24:00;99547.23;;;-0.91;78.13
58919;BME280;44704;50.122;19.932;2023-02-11T07:26:27;99543.90;;;-0.86;78.01
58919;BME280;44704;50.122;19.932;2023-02-11T07:28:54;99529.89;;;-0.82;77.76
58919;BME280;44704;50.122;19.932;2023-02-11T07:31:24;99530.36;;;-0.77;78.05
58919;BME280;44704;50.122;19.932;2023-02-11T07:33:54;99523.66;;;-0.72;77.66
58919;BME280;44704;50.122;19.932;2023-02-11T07:36:22;99519.03;;;-0.67;77.42
58919;BME280;44704;50.122;19.932;2023-02-11T07:38:49;99510.64;;;-0.61;77.48
58919;BME280;44704;50.122;19.932;2023-02-11T07:41:18;99502.65;;;-0.56;77.27
58919;BME280;44704;50.122;19.932;2023-02-11T07:43:46;99498.80;;;-0.51;77.42
58919;BME280;44704;50.122;19.932;2023-02-11T07:46:20;99499.17;;;-0.46;77.01
58919;BME280;44704;50.122;19.932;2023-02-11T07:48:48;99504.89;;;-0.40;76.69
58919;BME280;44704;50.122;19.932;2023-02-11T07:51:23;99513.39;;;-0.34;76.82
58919;BME280;44704;50.122;19.932;2023-02-11T07:53:51;99509.27;;;-0.26;76.52
58919;BME280;44704;50.122;19.932;2023-02-11T07:56:20;99502.52;;;-0.19;76.35
58919;BME280;44704;50.122;19.932;2023-02-11T07:58:48;99502.73;;;-0.12;76.23
58919;BME280;44704;50.122;19.932;2023-02-11T08:01:18;99497.61;;;-0.06;76.06
58919;BME280;44704;50.122;19.932;2023-02-11T08:03:45;99497.83;;;0.01;75.76
58919;BME280;44704;50.122;19.932;2023-02-11T08:06:14;99500.17;;;0.08;75.60
58919;BME280;44704;50.122;19.932;2023-02-11T08:08:42;99496.36;;;0.16;75.33
58919;BME280;44704;50.122;19.932;2023-02-11T08:13:44;99490.77;;;0.29;74.64
58919;BME280;44704;50.122;19.932;2023-02-11T08:16:21;99484.09;;;0.35;74.57
58919;BME280;44704;50.122;19.932;2023-02-11T08:18:49;99482.95;;;0.43;74.24
58919;BME280;44704;50.122;19.932;2023-02-11T08:21:17;99477.66;;;0.51;73.94
58919;BME280;44704;50.122;19.932;2023-02-11T08:23:45;99482.65;;;0.59;73.85
58919;BME280;44704;50.122;19.932;2023-02-11T08:26:15;99476.30;;;0.67;73.77
58919;BME280;44704;50.122;19.932;2023-02-11T08:28:44;99475.58;;;0.73;73.28
58919;BME280;44704;50.122;19.932;2023-02-11T08:31:14;99476.64;;;0.81;73.02
58919;BME280;44704;50.122;19.932;2023-02-11T08:33:42;99482.42;;;0.87;72.82
58919;BME280;44704;50.122;19.932;2023-02-11T08:36:15;99482.23;;;0.94;72.90
58919;BME280;44704;50.122;19.932;2023-02-11T08:38:43;99481.35;;;1.03;72.55
58919;BME280;44704;50.122;19.932;2023-02-11T08:41:10;99481.63;;;1.12;72.36
58919;BME280;44704;50.122;19.932;2023-02-11T08:43:37;99485.61;;;1.22;72.19
58919;BME280;44704;50.122;19.932;2023-02-11T08:46:08;99494.89;;;1.33;71.73
58919;BME280;44704;50.122;19.932;2023-02-11T08:48:35;99492.62;;;1.41;70.98
58919;BME280;44704;50.122;19.932;2023-02-11T08:51:12;99486.47;;;1.48;70.34
58919;BME280;44704;50.122;19.932;2023-02-11T08:53:39;99486.42;;;1.59;70.11
58919;BME280;44704;50.122;19.932;2023-02-11T08:56:08;99488.52;;;1.70;70.00
58919;BME280;44704;50.122;19.932;2023-02-11T08:58:36;99484.09;;;1.80;69.40
58919;BME280;44704;50.122;19.932;2023-02-11T09:01:18;99476.08;;;1.88;68.86
58919;BME280;44704;50.122;19.932;2023-02-11T09:03:46;99477.14;;;1.98;68.66
58919;BME280;44704;50.122;19.932;2023-02-11T09:06:14;99476.09;;;2.08;68.60
58919;BME280;44704;50.122;19.932;2023-02-11T09:08:42;99473.39;;;2.23;68.43
58919;BME280;44704;50.122;19.932;2023-02-11T09:11:10;99472.41;;;2.44;68.50
58919;BME280;44704;50.122;19.932;2023-02-11T09:13:38;99469.78;;;2.66;67.70
58919;BME280;44704;50.122;19.932;2023-02-11T09:16:06;99463.41;;;2.83;67.37
58919;BME280;44704;50.122;19.932;2023-02-11T09:18:33;99462.64;;;3.00;66.36
58919;BME280;44704;50.122;19.932;2023-02-11T09:21:04;99466.05;;;3.09;65.75
58919;BME280;44704;50.122;19.932;2023-02-11T09:23:32;99464.11;;;3.22;65.54
58919;BME280;44704;50.122;19.932;2023-02-11T09:26:08;99464.27;;;3.30;65.12
58919;BME280;44704;50.122;19.932;2023-02-11T09:28:36;99471.75;;;3.40;64.89
58919;BME280;44704;50.122;19.932;2023-02-11T09:31:05;99474.44;;;3.50;64.59
58919;BME280;44704;50.122;19.932;2023-02-11T09:33:32;99469.50;;;3.58;63.91
58919;BME280;44704;50.122;19.932;2023-02-11T09:36:01;99460.51;;;3.64;63.52
58919;BME280;44704;50.122;19.932;2023-02-11T09:38:28;99458.27;;;3.69;63.12
58919;BME280;44704;50.122;19.932;2023-02-11T09:40:55;99469.92;;;3.77;62.90
58919;BME280;44704;50.122;19.932;2023-02-11T09:43:43;99474.19;;;3.84;62.78
58919;BME280;44704;50.122;19.932;2023-02-11T09:46:15;99480.09;;;3.92;63.01
58919;BME280;44704;50.122;19.932;2023-02-11T09:48:45;99488.43;;;3.97;61.83
58919;BME280;44704;50.122;19.932;2023-02-11T09:51:34;99488.61;;;3.96;61.96
58919;BME280;44704;50.122;19.932;2023-02-11T09:54:03;99488.78;;;3.96;61.56
58919;BME280;44704;50.122;19.932;2023-02-11T09:56:33;99488.61;;;3.96;61.53
58919;BME280;44704;50.122;19.932;2023-02-11T09:59:00;99490.52;;;3.98;61.59
58919;BME280;44704;50.122;19.932;2023-02-11T10:02:00;99473.86;;;4.00;61.32
58919;BME280;44704;50.122;19.932;2023-02-11T10:07:10;99473.64;;;4.09;60.84
58919;BME280;44704;50.122;19.932;2023-02-11T10:15:17;99439.83;;;4.18;60.68
58919;BME280;44704;50.122;19.932;2023-02-11T10:20:36;99437.50;;;4.17;60.74
58919;BME280;44704;50.122;19.932;2023-02-11T10:23:24;99429.73;;;4.18;60.84
58919;BME280;44704;50.122;19.932;2023-02-11T10:25:53;99436.05;;;4.26;60.72
58919;BME280;44704;50.122;19.932;2023-02-11T10:28:22;99435.76;;;4.30;61.03
58919;BME280;44704;50.122;19.932;2023-02-11T10:33:30;99420.07;;;4.27;60.70
58919;BME280;44704;50.122;19.932;2023-02-11T10:35:58;99406.65;;;4.33;60.68
58919;BME280;44704;50.122;19.932;2023-02-11T10:38:26;99395.81;;;4.43;60.95
58919;BME280;44704;50.122;19.932;2023-02-11T10:40:53;99389.13;;;4.61;61.22
58919;BME280;44704;50.122;19.932;2023-02-11T10:43:25;99375.63;;;4.85;61.33
58919;BME280;44704;50.122;19.932;2023-02-11T10:45:54;99370.43;;;5.12;60.81
58919;BME280;44704;50.122;19.932;2023-02-11T10:48:42;99367.70;;;5.36;59.94
58919;BME280;44704;50.122;19.932;2023-02-11T10:51:31;99359.86;;;5.45;58.55
58919;BME280;44704;50.122;19.932;2023-02-11T10:56:34;99338.61;;;5.41;58.33
58919;BME280;44704;50.122;19.932;2023-02-11T10:59:32;99334.24;;;5.37;58.09
58919;BME280;44704;50.122;19.932;2023-02-11T11:02:22;99322.82;;;5.38;58.46
58919;BME280;44704;50.122;19.932;2023-02-11T11:04:55;99313.48;;;5.34;58.23
58919;BME280;44704;50.122;19.932;2023-02-11T11:07:25;99312.59;;;5.33;58.13
58919;BME280;44704;50.122;19.932;2023-02-11T11:10:24;99303.36;;;5.33;58.13
58919;BME280;44704;50.122;19.932;2023-02-11T11:12:52;99290.31;;;5.29;58.51
58919;BME280;44704;50.122;19.932;2023-02-11T11:15:21;99285.63;;;5.26;58.55
58919;BME280;44704;50.122;19.932;2023-02-11T11:18:13;99289.98;;;5.16;57.94
58919;BME280;44704;50.122;19.932;2023-02-11T11:20:58;99293.30;;;5.08;58.65
58919;BME280;44704;50.122;19.932;2023-02-11T11:23:28;99295.91;;;5.10;58.68
58919;BME280;44704;50.122;19.932;2023-02-11T11:26:09;99311.21;;;5.11;58.42
58919;BME280;44704;50.122;19.932;2023-02-11T11:28:41;99307.59;;;5.15;58.24
58919;BME280;44704;50.122;19.932;2023-02-11T11:31:19;99300.71;;;5.23;58.56
58919;BME280;44704;50.122;19.932;2023-02-11T11:33:49;99298.64;;;5.34;58.35
58919;BME280;44704;50.122;19.932;2023-02-11T11:36:22;99293.17;;;5.43;58.35
58919;BME280;44704;50.122;19.932;2023-02-11T11:38:56;99292.89;;;5.48;57.93
58919;BME280;44704;50.122;19.932;2023-02-11T11:41:25;99294.63;;;5.40;57.69
58919;BME280;44704;50.122;19.932;2023-02-11T11:46:44;99295.02;;;4.96;58.21
58919;BME280;44704;50.122;19.932;2023-02-11T11:49:24;99302.59;;;4.78;59.06
58919;BME280;44704;50.122;19.932;2023-02-11T11:52:09;99306.02;;;4.70;59.73
58919;BME280;44704;50.122;19.932;2023-02-11T11:54:39;99308.94;;;4.65;59.97
58919;BME280;44704;50.122;19.932;2023-02-11T11:57:15;99308.27;;;4.62;60.22
58919;BME280;44704;50.122;19.932;2023-02-11T11:59:44;99305.67;;;4.58;60.22
58919;BME280;44704;50.122;19.932;2023-02-11T12:05:26;99303.93;;;4.41;60.45
58919;BME280;44704;50.122;19.932;2023-02-11T12:16:57;99309.58;;;4.07;62.19
58919;BME280;44704;50.122;19.932;2023-02-11T12:22:55;99323.04;;;3.96;62.58
58919;BME280;44704;50.122;19.932;2023-02-11T12:25:44;99321.94;;;3.95;63.07
58919;BME280;44704;50.122;19.932;2023-02-11T12:47:33;99281.67;;;3.85;64.65
58919;BME280;44704;50.122;19.932;2023-02-11T12:55:37;99245.23;;;3.57;66.22
58919;BME280;44704;50.122;19.932;2023-02-11T12:58:12;99236.47;;;3.52;66.51
58919;BME280;44704;50.122;19.932;2023-02-11T13:00:47;99233.27;;;3.49;66.62
58919;BME280;44704;50.122;19.932;2023-02-11T13:03:28;99234.05;;;3.47;66.63
58919;BME280;44704;50.122;19.932;2023-02-11T13:06:21;99245.42;;;3.43;67.00
58919;BME280;44704;50.122;19.932;2023-02-11T13:08:59;99239.27;;;3.36;67.29
58919;BME280;44704;50.122;19.932;2023-02-11T13:11:38;99235.02;;;3.33;67.77
58919;BME280;44704;50.122;19.932;2023-02-11T13:16:52;99242.21;;;3.21;68.93
58919;BME280;44704;50.122;19.932;2023-02-11T13:22:31;99237.48;;;3.14;70.01
58919;BME280;44704;50.122;19.932;2023-02-11T13:27:50;99211.50;;;3.06;71.39
58919;BME280;44704;50.122;19.932;2023-02-11T13:30:29;99200.04;;;3.04;72.35
58919;BME280;44704;50.122;19.932;2023-02-11T13:35:33;99206.90;;;2.95;72.90
58919;BME280;44704;50.122;19.932;2023-02-11T13:38:02;99214.60;;;2.89;72.91
58919;BME280;44704;50.122;19.932;2023-02-11T13:40:34;99195.39;;;2.84;73.32
58919;BME280;44704;50.122;19.932;2023-02-11T13:43:04;99182.66;;;2.81;73.37
58919;BME280;44704;50.122;19.932;2023-02-11T13:45:41;99165.70;;;2.79;73.53
58919;BME280;44704;50.122;19.932;2023-02-11T13:48:28;99148.98;;;2.74;73.74
58919;BME280;44704;50.122;19.932;2023-02-11T13:51:09;99158.79;;;2.70;74.07
58919;BME280;44704;50.122;19.932;2023-02-11T13:53:47;99180.77;;;2.68;73.78
58919;BME280;44704;50.122;19.932;2023-02-11T13:56:41;99193.66;;;2.63;74.32
58919;BME280;44704;50.122;19.932;2023-02-11T14:13:34;99209.64;;;2.49;75.28
58919;BME280;44704;50.122;19.932;2023-02-11T14:16:10;99211.93;;;2.47;75.35
58919;BME280;44704;50.122;19.932;2023-02-11T14:21:28;99226.02;;;2.43;75.52
58919;BME280;44704;50.122;19.932;2023-02-11T14:34:35;99249.75;;;2.22;76.78
58919;BME280;44704;50.122;19.932;2023-02-11T14:37:30;99245.86;;;2.21;76.99
58919;BME280;44704;50.122;19.932;2023-02-11T14:42:42;99246.39;;;2.21;77.38
58919;BME280;44704;50.122;19.932;2023-02-11T14:45:17;99253.05;;;2.23;77.39
58919;BME280;44704;50.122;19.932;2023-02-11T14:48:15;99254.88;;;2.22;77.47
58919;BME280;44704;50.122;19.932;2023-02-11T14:50:53;99245.09;;;2.23;77.63
58919;BME280;44704;50.122;19.932;2023-02-11T14:53:23;99246.27;;;2.25;77.63
58919;BME280;44704;50.122;19.932;2023-02-11T14:55:53;99242.67;;;2.29;77.96
58919;BME280;44704;50.122;19.932;2023-02-11T14:58:28;99240.05;;;2.28;78.24
58919;BME280;44704;50.122;19.932;2023-02-11T15:01:02;99245.05;;;2.28;78.41
58919;BME280;44704;50.122;19.932;2023-02-11T15:03:37;99247.11;;;2.26;78.29
58919;BME280;44704;50.122;19.932;2023-02-11T15:06:16;99250.69;;;2.21;78.68
58919;BME280;44704;50.122;19.932;2023-02-11T15:08:48;99252.88;;;2.15;79.40
58919;BME280;44704;50.122;19.932;2023-02-11T15:11:19;99253.08;;;2.06;79.96
58919;BME280;44704;50.122;19.932;2023-02-11T15:13:46;99253.70;;;1.99;80.24
58919;BME280;44704;50.122;19.932;2023-02-11T15:16:16;99254.97;;;1.91;81.02
58919;BME280;44704;50.122;19.932;2023-02-11T15:18:47;99257.89;;;1.84;81.40
58919;BME280;44704;50.122;19.932;2023-02-11T15:21:27;99260.05;;;1.77;81.57
58919;BME280;44704;50.122;19.932;2023-02-11T15:24:16;99268.50;;;1.72;81.94
58919;BME280;44704;50.122;19.932;2023-02-11T15:27:00;99267.27;;;1.65;82.28
58919;BME280;44704;50.122;19.932;2023-02-11T15:29:28;99268.60;;;1.59;82.95
58919;BME280;44704;50.122;19.932;2023-02-11T15:32:34;99269.34;;;1.54;83.46